Time;durP1;ratioP1;P1;durP2;ratioP2;P2;SDS_P1;SDS_P2;PMS_P1;PMS_P2;Temp;Humidity;BMP_temperature;BMP_pressure;BME280_temperature;BME280_humidity;BME280_pressure;Samples;Min_cycle;Max_cycle;Signal;HPM_P1;HPM_P2
2021/12/31 00:01:58;;;;;;;0.60;0.60;;;;;;;;;;4995869;28;20209;-64
2021/12/31 00:04:25;;;;;;;4.00;0.63;;;;;;;;;;4992220;28;20288;-63
2021/12/31 00:06:52;;;;;;;0.50;0.50;;;;;;;;;;4992092;28;20683;-63
2021/12/31 00:09:21;;;;;;;0.50;0.50;;;;;;;;;;5009526;28;20271;-66
2021/12/31 00:11:48;;;;;;;0.60;0.60;;;;;;;;;;5009354;28;20228;-63
2021/12/31 00:14:16;;;;;;;0.70;0.50;;;;;;;;;;5003790;28;20209;-63
2021/12/31 00:16:43;;;;;;;0.80;0.73;;;;;;;;;;5011195;28;20748;-63
2021/12/31 00:19:11;;;;;;;0.50;0.50;;;;;;;;;;5011463;28;20217;-63
2021/12/31 00:21:38;;;;;;;0.67;0.40;;;;;;;;;;4992836;28;20289;-63
2021/12/31 00:24:05;;;;;;;1.17;0.50;;;;;;;;;;5000981;28;20213;-63
2021/12/31 00:26:34;;;;;;;0.70;0.50;;;;;;;;;;5010469;28;20256;-64
2021/12/31 00:29:01;;;;;;;0.80;0.53;;;;;;;;;;5011029;28;20207;-63
2021/12/31 00:31:28;;;;;;;0.50;0.50;;;;;;;;;;5007433;28;20216;-63
2021/12/31 00:33:56;;;;;;;0.60;0.60;;;;;;;;;;5010992;28;20221;-65
2021/12/31 00:36:23;;;;;;;0.60;0.60;;;;;;;;;;5009056;28;20245;-66
2021/12/31 00:38:50;;;;;;;0.50;0.50;;;;;;;;;;5010833;28;20716;-66
2021/12/31 00:41:17;;;;;;;0.50;0.50;;;;;;;;;;5008436;28;20213;-66
2021/12/31 00:43:45;;;;;;;0.40;0.33;;;;;;;;;;5010744;28;20224;-66
2021/12/31 00:46:12;;;;;;;0.67;0.67;;;;;;;;;;5000047;28;20583;-64
2021/12/31 00:48:39;;;;;;;0.40;0.40;;;;;;;;;;5002642;28;20205;-63
2021/12/31 00:51:06;;;;;;;0.60;0.60;;;;;;;;;;5008478;28;20252;-64
2021/12/31 00:53:33;;;;;;;0.40;0.40;;;;;;;;;;5001550;28;20729;-65
2021/12/31 00:56:00;;;;;;;0.67;0.57;;;;;;;;;;5001954;28;20221;-64
2021/12/31 00:58:27;;;;;;;1.87;0.57;;;;;;;;;;5006929;28;20564;-64
2021/12/31 01:00:55;;;;;;;0.70;0.70;;;;;;;;;;4991027;28;20217;-64
2021/12/31 01:03:22;;;;;;;2.70;0.67;;;;;;;;;;5000559;28;20197;-66
2021/12/31 01:05:49;;;;;;;0.60;0.60;;;;;;;;;;5010628;28;20988;-65
2021/12/31 01:08:16;;;;;;;0.50;0.50;;;;;;;;;;5008494;28;20268;-65
2021/12/31 01:10:43;;;;;;;1.17;0.50;;;;;;;;;;5008257;28;20283;-64
2021/12/31 01:13:18;;;;;;;0.50;0.50;;;;;;;;;;5007749;28;20232;-65
2021/12/31 01:15:46;;;;;;;0.60;0.60;;;;;;;;;;5010544;28;20212;-65
2021/12/31 01:18:26;;;;;;;0.60;0.50;;;;;;;;;;5008823;28;20213;-64
2021/12/31 01:20:53;;;;;;;0.40;0.40;;;;;;;;;;5010236;28;20212;-65
2021/12/31 01:23:20;;;;;;;1.10;0.70;;;;;;;;;;5008428;28;20216;-65
2021/12/31 01:25:47;;;;;;;1.50;0.60;;;;;;;;;;5010165;28;20205;-65
2021/12/31 01:28:15;;;;;;;0.60;0.60;;;;;;;;;;5008597;28;20209;-65
2021/12/31 01:30:42;;;;;;;0.70;0.70;;;;;;;;;;5005773;28;20198;-65
2021/12/31 01:33:10;;;;;;;1.03;0.90;;;;;;;;;;4998614;28;20715;-65
2021/12/31 01:35:38;;;;;;;0.50;0.50;;;;;;;;;;4990255;28;20353;-65
2021/12/31 01:38:05;;;;;;;1.03;0.83;;;;;;;;;;4991989;28;20213;-65
2021/12/31 01:40:32;;;;;;;1.13;0.70;;;;;;;;;;4990550;28;20205;-65
2021/12/31 01:42:59;;;;;;;0.80;0.50;;;;;;;;;;5006868;28;20256;-65
2021/12/31 01:45:30;;;;;;;0.60;0.60;;;;;;;;;;4994016;28;20209;-65
2021/12/31 01:48:06;;;;;;;2.20;0.60;;;;;;;;;;5005788;28;20828;-65
2021/12/31 01:50:34;;;;;;;1.33;0.63;;;;;;;;;;4991960;28;20315;-65
2021/12/31 01:53:02;;;;;;;0.77;0.73;;;;;;;;;;4989959;28;20720;-65
2021/12/31 01:55:31;;;;;;;0.80;0.80;;;;;;;;;;4991128;28;20218;-65
2021/12/31 01:57:58;;;;;;;2.00;0.73;;;;;;;;;;5008865;28;20213;-65
2021/12/31 02:00:26;;;;;;;0.57;0.57;;;;;;;;;;4997532;28;20214;-64
2021/12/31 02:02:53;;;;;;;1.50;1.13;;;;;;;;;;4989816;28;20212;-64
2021/12/31 02:05:20;;;;;;;0.90;0.90;;;;;;;;;;4992749;28;20217;-65
2021/12/31 02:07:47;;;;;;;0.93;0.90;;;;;;;;;;4991137;28;20210;-64
2021/12/31 02:10:15;;;;;;;0.97;0.70;;;;;;;;;;4998033;28;20694;-65
2021/12/31 02:12:46;;;;;;;0.60;0.60;;;;;;;;;;4989640;28;20225;-64
2021/12/31 02:15:14;;;;;;;0.73;0.73;;;;;;;;;;4989092;28;20264;-65
2021/12/31 02:17:41;;;;;;;0.77;0.77;;;;;;;;;;4988786;28;20214;-65
2021/12/31 02:20:10;;;;;;;0.73;0.70;;;;;;;;;;5001442;28;20595;-64
2021/12/31 02:22:38;;;;;;;0.77;0.63;;;;;;;;;;4990755;28;20201;-65
2021/12/31 02:25:06;;;;;;;2.80;0.77;;;;;;;;;;5004273;28;20209;-65
2021/12/31 02:27:36;;;;;;;0.80;0.80;;;;;;;;;;4994154;28;20699;-65
2021/12/31 02:30:04;;;;;;;4.37;0.70;;;;;;;;;;4988674;28;20213;-65
2021/12/31 02:32:31;;;;;;;0.70;0.70;;;;;;;;;;4990440;28;20232;-65
2021/12/31 02:34:58;;;;;;;3.50;0.80;;;;;;;;;;4988778;28;20205;-65
2021/12/31 02:37:26;;;;;;;1.57;0.70;;;;;;;;;;4997917;28;20213;-65
2021/12/31 02:39:53;;;;;;;1.03;0.80;;;;;;;;;;4995068;28;20212;-65
2021/12/31 02:42:20;;;;;;;0.93;0.70;;;;;;;;;;4989839;28;20209;-65
2021/12/31 02:44:49;;;;;;;0.83;0.83;;;;;;;;;;4988475;28;20213;-65
2021/12/31 02:47:16;;;;;;;0.80;0.80;;;;;;;;;;4988536;28;20224;-65
2021/12/31 02:49:46;;;;;;;0.87;0.87;;;;;;;;;;4989330;28;20236;-65
2021/12/31 02:52:14;;;;;;;0.60;0.60;;;;;;;;;;4990709;28;20243;-65
2021/12/31 02:54:43;;;;;;;0.77;0.77;;;;;;;;;;4996259;28;20227;-66
2021/12/31 02:57:11;;;;;;;1.90;0.50;;;;;;;;;;5005923;28;20246;-66
2021/12/31 02:59:38;;;;;;;0.90;0.90;;;;;;;;;;5007574;28;20255;-65
2021/12/31 03:02:06;;;;;;;0.70;0.70;;;;;;;;;;5006549;28;20723;-65
2021/12/31 03:04:35;;;;;;;0.63;0.63;;;;;;;;;;5001444;28;20205;-66
2021/12/31 03:07:03;;;;;;;0.50;0.50;;;;;;;;;;5011887;28;20974;-66
2021/12/31 03:09:30;;;;;;;0.80;0.77;;;;;;;;;;5011682;28;20205;-65
2021/12/31 03:11:59;;;;;;;2.13;0.93;;;;;;;;;;5011870;28;20266;-65
2021/12/31 03:14:27;;;;;;;0.90;0.90;;;;;;;;;;4993475;28;20874;-65
2021/12/31 03:16:54;;;;;;;1.93;1.30;;;;;;;;;;4992095;28;20213;-65
2021/12/31 03:19:21;;;;;;;2.63;0.80;;;;;;;;;;4996121;28;20202;-65
2021/12/31 03:21:48;;;;;;;2.00;0.80;;;;;;;;;;5010943;28;20201;-65
2021/12/31 03:24:16;;;;;;;2.90;0.70;;;;;;;;;;5009567;28;20718;-66
2021/12/31 03:26:43;;;;;;;0.77;0.77;;;;;;;;;;5010846;28;20239;-66
2021/12/31 03:29:11;;;;;;;0.83;0.83;;;;;;;;;;5011352;28;20212;-66
2021/12/31 03:31:38;;;;;;;1.40;1.00;;;;;;;;;;5011448;28;20205;-65
2021/12/31 03:34:05;;;;;;;0.83;0.80;;;;;;;;;;5009199;28;20282;-65
2021/12/31 03:36:32;;;;;;;0.60;0.60;;;;;;;;;;4996239;28;20584;-65
2021/12/31 03:38:59;;;;;;;3.13;1.10;;;;;;;;;;5009285;28;20814;-65
2021/12/31 03:41:26;;;;;;;1.13;0.87;;;;;;;;;;5008062;28;20205;-65
2021/12/31 03:43:53;;;;;;;0.90;0.90;;;;;;;;;;4995763;28;20625;-66
2021/12/31 03:46:22;;;;;;;1.07;1.07;;;;;;;;;;4992413;28;20210;-65
2021/12/31 03:48:49;;;;;;;3.10;1.00;;;;;;;;;;4991496;28;20205;-65
2021/12/31 03:51:16;;;;;;;0.90;0.80;;;;;;;;;;5006630;28;20303;-65
2021/12/31 03:53:43;;;;;;;2.53;1.10;;;;;;;;;;5009434;28;20225;-66
2021/12/31 03:56:10;;;;;;;1.07;0.93;;;;;;;;;;5009740;28;20213;-66
2021/12/31 03:58:37;;;;;;;0.60;0.60;;;;;;;;;;5010429;28;20742;-65
2021/12/31 04:01:04;;;;;;;0.67;0.60;;;;;;;;;;5010807;28;20213;-65
2021/12/31 04:03:33;;;;;;;0.70;0.70;;;;;;;;;;5009652;28;20197;-65
2021/12/31 04:06:00;;;;;;;0.70;0.70;;;;;;;;;;5000943;28;20234;-65
2021/12/31 04:08:27;;;;;;;0.67;0.67;;;;;;;;;;5003100;28;20209;-66
2021/12/31 04:10:54;;;;;;;1.27;0.97;;;;;;;;;;4991351;28;20210;-66
2021/12/31 04:13:21;;;;;;;0.77;0.77;;;;;;;;;;4992091;28;20234;-65
2021/12/31 04:15:48;;;;;;;2.03;0.80;;;;;;;;;;4992872;28;20574;-65
2021/12/31 04:18:15;;;;;;;0.80;0.80;;;;;;;;;;5003354;28;20212;-65
2021/12/31 04:20:45;;;;;;;2.37;1.83;;;;;;;;;;5011186;28;20303;-66
2021/12/31 04:23:25;;;;;;;2.00;1.00;;;;;;;;;;5011420;28;20622;-65
2021/12/31 04:25:52;;;;;;;0.80;0.80;;;;;;;;;;4996709;28;20582;-65
2021/12/31 04:28:19;;;;;;;5.80;1.20;;;;;;;;;;5010291;28;20205;-65
2021/12/31 04:30:46;;;;;;;0.87;0.83;;;;;;;;;;5008819;28;20209;-65
2021/12/31 04:33:13;;;;;;;0.97;0.97;;;;;;;;;;4998740;28;20218;-65
2021/12/31 04:35:40;;;;;;;1.27;0.73;;;;;;;;;;4999688;28;20213;-65
2021/12/31 04:38:08;;;;;;;1.90;1.33;;;;;;;;;;4996639;28;20248;-66
2021/12/31 04:40:36;;;;;;;1.57;1.00;;;;;;;;;;5008025;28;20628;-65
2021/12/31 04:43:03;;;;;;;1.03;0.97;;;;;;;;;;4991166;28;20284;-65
2021/12/31 04:45:30;;;;;;;2.10;1.90;;;;;;;;;;4988562;28;20250;-65
2021/12/31 04:47:57;;;;;;;2.10;1.90;;;;;;;;;;4992131;28;20822;-65
2021/12/31 04:50:24;;;;;;;2.20;2.00;;;;;;;;;;5007642;28;20240;-65
2021/12/31 04:52:51;;;;;;;1.60;1.60;;;;;;;;;;5010196;28;20243;-65
2021/12/31 04:55:19;;;;;;;0.90;0.90;;;;;;;;;;5009492;28;20205;-66
2021/12/31 04:57:48;;;;;;;0.80;0.80;;;;;;;;;;5002466;28;20216;-63
2021/12/31 05:00:16;;;;;;;3.53;1.97;;;;;;;;;;5006558;28;20624;-63
2021/12/31 05:02:43;;;;;;;3.00;2.03;;;;;;;;;;5009474;28;20205;-66
2021/12/31 05:05:11;;;;;;;1.73;1.63;;;;;;;;;;5005470;28;20221;-65
2021/12/31 05:07:38;;;;;;;1.67;1.57;;;;;;;;;;5008313;28;20213;-64
2021/12/31 05:10:05;;;;;;;1.70;1.60;;;;;;;;;;5005854;28;20206;-64
2021/12/31 05:12:36;;;;;;;1.50;1.50;;;;;;;;;;4990064;28;20213;-64
2021/12/31 05:15:06;;;;;;;1.77;1.63;;;;;;;;;;5008901;28;20769;-64
2021/12/31 05:17:33;;;;;;;1.67;1.57;;;;;;;;;;4998744;28;20206;-64
2021/12/31 05:20:00;;;;;;;1.30;1.30;;;;;;;;;;4998455;28;20218;-64
2021/12/31 05:22:27;;;;;;;2.30;1.10;;;;;;;;;;4989736;28;20228;-64
2021/12/31 05:24:54;;;;;;;0.93;0.90;;;;;;;;;;4990148;28;20213;-64
2021/12/31 05:27:21;;;;;;;1.33;1.20;;;;;;;;;;5002133;28;20867;-64
2021/12/31 05:29:49;;;;;;;0.83;0.83;;;;;;;;;;4991650;28;20232;-64
2021/12/31 05:32:16;;;;;;;1.13;1.13;;;;;;;;;;5001707;28;20213;-64
2021/12/31 05:34:43;;;;;;;3.80;1.20;;;;;;;;;;5009683;28;20235;-64
2021/12/31 05:37:10;;;;;;;1.03;1.00;;;;;;;;;;5009323;28;20216;-64
2021/12/31 05:39:38;;;;;;;1.03;1.03;;;;;;;;;;5009078;28;20260;-64
2021/12/31 05:42:06;;;;;;;0.90;0.90;;;;;;;;;;5006858;28;20205;-63
2021/12/31 05:44:33;;;;;;;0.90;0.90;;;;;;;;;;5009353;28;20683;-65
2021/12/31 05:47:01;;;;;;;1.30;1.17;;;;;;;;;;5007498;28;20217;-63
2021/12/31 05:49:28;;;;;;;1.20;1.10;;;;;;;;;;5009447;28;20221;-64
2021/12/31 05:51:55;;;;;;;1.13;1.13;;;;;;;;;;4995683;28;20259;-64
2021/12/31 05:54:22;;;;;;;2.40;0.90;;;;;;;;;;5006141;28;20224;-64
2021/12/31 05:56:49;;;;;;;2.13;0.90;;;;;;;;;;5004419;28;20213;-65
2021/12/31 05:59:16;;;;;;;0.80;0.80;;;;;;;;;;5009446;28;20217;-64
2021/12/31 06:01:43;;;;;;;0.97;0.87;;;;;;;;;;5002455;28;20252;-65
2021/12/31 06:04:12;;;;;;;1.60;0.90;;;;;;;;;;4989510;28;20209;-64
2021/12/31 06:06:39;;;;;;;1.00;1.00;;;;;;;;;;4990097;28;20216;-65
2021/12/31 06:09:07;;;;;;;0.90;0.90;;;;;;;;;;4989132;28;20214;-65
2021/12/31 06:11:35;;;;;;;4.23;1.10;;;;;;;;;;4993418;28;20947;-65
2021/12/31 06:14:04;;;;;;;0.60;0.60;;;;;;;;;;4989013;28;20225;-64
2021/12/31 06:16:33;;;;;;;0.80;0.80;;;;;;;;;;4988910;28;20210;-64
2021/12/31 06:19:03;;;;;;;0.57;0.57;;;;;;;;;;4989108;28;20268;-65
2021/12/31 06:21:31;;;;;;;0.80;0.80;;;;;;;;;;5003739;28;20205;-65
2021/12/31 06:23:58;;;;;;;0.67;0.67;;;;;;;;;;4993956;28;20672;-65
2021/12/31 06:26:25;;;;;;;3.03;0.73;;;;;;;;;;5001015;28;20213;-64
2021/12/31 06:28:52;;;;;;;0.93;0.93;;;;;;;;;;5007690;28;20205;-65
2021/12/31 06:31:19;;;;;;;2.20;1.00;;;;;;;;;;5008399;28;20243;-65
2021/12/31 06:33:46;;;;;;;0.80;0.80;;;;;;;;;;5000611;28;20244;-64
2021/12/31 06:36:13;;;;;;;1.27;1.27;;;;;;;;;;5013081;28;20216;-65
2021/12/31 06:38:42;;;;;;;1.63;1.63;;;;;;;;;;5014842;28;20208;-64
2021/12/31 06:41:09;;;;;;;1.67;1.57;;;;;;;;;;5014540;28;20312;-65
2021/12/31 06:43:37;;;;;;;2.30;2.10;;;;;;;;;;5011127;28;20216;-65
2021/12/31 06:46:04;;;;;;;1.03;0.90;;;;;;;;;;5014367;28;20216;-66
2021/12/31 06:48:31;;;;;;;2.83;1.03;;;;;;;;;;5014121;28;20213;-63
2021/12/31 06:50:58;;;;;;;0.97;0.97;;;;;;;;;;5004250;28;20244;-64
2021/12/31 06:53:25;;;;;;;0.97;0.97;;;;;;;;;;4996060;28;20220;-66
2021/12/31 06:55:53;;;;;;;0.80;0.80;;;;;;;;;;4997780;28;20238;-66
2021/12/31 06:58:20;;;;;;;0.80;0.80;;;;;;;;;;5004292;28;20614;-66
2021/12/31 07:00:47;;;;;;;1.07;1.07;;;;;;;;;;5014173;28;20278;-66
2021/12/31 07:03:15;;;;;;;0.70;0.70;;;;;;;;;;5014381;28;20212;-64
2021/12/31 07:05:42;;;;;;;0.97;0.97;;;;;;;;;;5009594;28;20211;-64
2021/12/31 07:08:09;;;;;;;0.73;0.73;;;;;;;;;;5013516;28;20224;-64
2021/12/31 07:10:37;;;;;;;1.27;0.97;;;;;;;;;;5012237;28;20206;-64
2021/12/31 07:13:10;;;;;;;0.80;0.80;;;;;;;;;;5007155;28;20460;-64
2021/12/31 07:15:38;;;;;;;0.70;0.70;;;;;;;;;;4995649;28;20232;-64
2021/12/31 07:18:05;;;;;;;0.90;0.90;;;;;;;;;;5003332;28;20267;-64
2021/12/31 07:20:32;;;;;;;3.10;1.10;;;;;;;;;;5014329;28;20679;-64
2021/12/31 07:23:04;;;;;;;1.37;0.70;;;;;;;;;;5010843;28;20202;-64
2021/12/31 07:25:31;;;;;;;1.03;1.03;;;;;;;;;;5005972;28;20243;-64
2021/12/31 07:27:58;;;;;;;1.20;1.20;;;;;;;;;;5014253;28;20240;-64
2021/12/31 07:30:26;;;;;;;0.93;0.93;;;;;;;;;;5014007;28;20243;-64
2021/12/31 07:32:53;;;;;;;1.00;1.00;;;;;;;;;;5012563;28;20204;-64
2021/12/31 07:35:20;;;;;;;0.90;0.90;;;;;;;;;;4997475;28;20264;-64
2021/12/31 07:37:47;;;;;;;1.80;1.00;;;;;;;;;;4994714;28;20232;-64
2021/12/31 07:40:24;;;;;;;1.00;1.00;;;;;;;;;;5007492;28;20554;-64
2021/12/31 07:42:51;;;;;;;1.37;1.27;;;;;;;;;;5007944;28;20216;-63
2021/12/31 07:45:18;;;;;;;1.47;1.37;;;;;;;;;;5006963;28;20208;-64
2021/12/31 07:47:46;;;;;;;1.13;1.00;;;;;;;;;;5010627;28;20213;-64
2021/12/31 07:50:14;;;;;;;1.23;0.93;;;;;;;;;;5009981;28;20283;-64
2021/12/31 07:52:41;;;;;;;1.30;1.30;;;;;;;;;;5008598;28;20738;-64
2021/12/31 07:55:09;;;;;;;1.57;1.47;;;;;;;;;;5010818;28;20233;-64
2021/12/31 07:57:36;;;;;;;1.37;1.37;;;;;;;;;;5010358;28;20923;-63
2021/12/31 08:00:03;;;;;;;2.07;1.53;;;;;;;;;;5006168;28;20209;-64
2021/12/31 08:02:30;;;;;;;1.20;1.20;;;;;;;;;;4997482;28;20212;-64
2021/12/31 08:04:58;;;;;;;1.10;1.10;;;;;;;;;;5010600;28;20213;-64
2021/12/31 08:07:25;;;;;;;2.17;1.13;;;;;;;;;;4999754;28;20209;-64
2021/12/31 08:09:52;;;;;;;1.43;1.17;;;;;;;;;;5010426;28;20213;-64
2021/12/31 08:12:19;;;;;;;1.70;1.60;;;;;;;;;;5009725;28;20208;-63
2021/12/31 08:14:46;;;;;;;2.10;1.30;;;;;;;;;;4993185;28;20225;-64
2021/12/31 08:17:13;;;;;;;1.73;1.53;;;;;;;;;;4995397;28;20209;-64
2021/12/31 08:19:41;;;;;;;1.10;1.10;;;;;;;;;;5010634;28;20213;-63
2021/12/31 08:22:10;;;;;;;1.43;1.10;;;;;;;;;;4995207;28;20205;-62
2021/12/31 08:24:37;;;;;;;1.87;1.40;;;;;;;;;;5002852;28;20243;-63
2021/12/31 08:27:04;;;;;;;1.63;1.53;;;;;;;;;;5010806;28;20899;-64
2021/12/31 08:29:31;;;;;;;2.07;1.40;;;;;;;;;;5010116;28;20243;-65
2021/12/31 08:31:58;;;;;;;1.43;1.33;;;;;;;;;;5010525;28;20209;-64
2021/12/31 08:34:25;;;;;;;1.30;1.20;;;;;;;;;;5010533;28;20239;-64
2021/12/31 08:36:52;;;;;;;1.30;1.20;;;;;;;;;;5007713;28;20205;-64
2021/12/31 08:39:21;;;;;;;2.37;1.40;;;;;;;;;;4995291;28;20206;-64
2021/12/31 08:41:48;;;;;;;1.10;1.00;;;;;;;;;;4990931;28;20295;-64
2021/12/31 08:44:15;;;;;;;1.10;1.10;;;;;;;;;;5000459;28;20205;-64
2021/12/31 08:46:42;;;;;;;1.10;1.00;;;;;;;;;;5010732;28;20217;-64
2021/12/31 08:49:10;;;;;;;1.33;1.10;;;;;;;;;;5010042;28;20209;-64
2021/12/31 08:51:44;;;;;;;1.33;1.33;;;;;;;;;;5010208;28;20652;-63
2021/12/31 08:54:11;;;;;;;2.67;1.20;;;;;;;;;;5010018;28;20230;-64
2021/12/31 08:56:39;;;;;;;1.03;1.03;;;;;;;;;;5006444;28;20271;-64
2021/12/31 08:59:06;;;;;;;0.93;0.93;;;;;;;;;;5008645;28;20205;-63
2021/12/31 09:01:34;;;;;;;1.10;1.00;;;;;;;;;;5009855;28;20805;-63
2021/12/31 09:04:01;;;;;;;0.83;0.83;;;;;;;;;;4993842;28;20209;-64
2021/12/31 09:06:28;;;;;;;1.20;1.10;;;;;;;;;;4990370;28;20213;-63
2021/12/31 09:08:55;;;;;;;0.87;0.87;;;;;;;;;;4990916;28;20202;-63
2021/12/31 09:11:22;;;;;;;1.20;1.20;;;;;;;;;;4993194;28;20205;-63
2021/12/31 09:13:53;;;;;;;1.33;1.07;;;;;;;;;;4999813;28;20274;-64
2021/12/31 09:16:20;;;;;;;2.37;1.00;;;;;;;;;;5009383;28;20240;-64
2021/12/31 09:18:48;;;;;;;3.03;0.87;;;;;;;;;;5000179;28;20243;-65
2021/12/31 09:21:17;;;;;;;1.13;1.03;;;;;;;;;;5009287;28;20227;-65
2021/12/31 09:23:44;;;;;;;1.47;1.37;;;;;;;;;;5009134;28;20268;-64
2021/12/31 09:26:11;;;;;;;1.43;1.00;;;;;;;;;;5008494;28;20205;-65
2021/12/31 09:28:39;;;;;;;1.27;1.27;;;;;;;;;;5009060;28;20213;-64
2021/12/31 09:31:08;;;;;;;1.60;1.50;;;;;;;;;;5000502;28;20699;-64
2021/12/31 09:33:35;;;;;;;0.90;0.90;;;;;;;;;;5006315;28;20562;-65
2021/12/31 09:36:02;;;;;;;1.23;1.13;;;;;;;;;;4992063;28;20283;-64
2021/12/31 09:38:29;;;;;;;1.60;1.03;;;;;;;;;;4989885;28;20670;-65
2021/12/31 09:40:56;;;;;;;4.53;1.27;;;;;;;;;;5000235;28;20218;-64
2021/12/31 09:43:24;;;;;;;2.17;1.20;;;;;;;;;;4997847;28;20263;-64
2021/12/31 09:45:53;;;;;;;1.53;1.37;;;;;;;;;;4995649;28;20557;-65
2021/12/31 09:48:22;;;;;;;3.30;1.10;;;;;;;;;;4998588;28;20299;-64
2021/12/31 09:50:50;;;;;;;3.93;1.30;;;;;;;;;;4998460;28;20251;-64
2021/12/31 09:53:18;;;;;;;1.77;1.40;;;;;;;;;;4997960;28;20248;-64
2021/12/31 09:55:46;;;;;;;1.40;1.30;;;;;;;;;;4993861;28;20229;-64
2021/12/31 09:58:14;;;;;;;2.50;1.20;;;;;;;;;;5000735;28;20768;-65
2021/12/31 10:00:43;;;;;;;1.00;1.00;;;;;;;;;;4998846;28;20627;-65
2021/12/31 10:03:14;;;;;;;1.53;1.17;;;;;;;;;;4997431;28;20692;-66
2021/12/31 10:05:43;;;;;;;1.30;1.20;;;;;;;;;;4997008;28;20667;-65
2021/12/31 10:08:19;;;;;;;1.00;1.00;;;;;;;;;;4997525;28;20216;-64
2021/12/31 10:11:01;;;;;;;1.75;0.90;;;;;;;;;;4997206;28;20300;-66
2021/12/31 10:13:28;;;;;;;1.98;0.85;;;;;;;;;;4997338;28;20559;-65
2021/12/31 10:15:56;;;;;;;1.25;1.00;;;;;;;;;;4998859;28;20240;-65
2021/12/31 10:18:29;;;;;;;1.50;1.02;;;;;;;;;;4998045;28;20209;-65
2021/12/31 10:20:58;;;;;;;0.95;0.95;;;;;;;;;;4997788;28;20652;-65
2021/12/31 10:23:25;;;;;;;0.95;0.95;;;;;;;;;;4996203;28;20212;-66
2021/12/31 10:25:52;;;;;;;1.08;1.08;;;;;;;;;;4997877;28;20681;-63
2021/12/31 10:28:19;;;;;;;1.95;0.95;;;;;;;;;;4996036;28;20210;-65
2021/12/31 10:30:46;;;;;;;0.80;0.80;;;;;;;;;;4998963;28;20291;-66
2021/12/31 10:33:13;;;;;;;1.10;0.98;;;;;;;;;;5004699;28;20205;-64
2021/12/31 10:35:41;;;;;;;1.30;1.00;;;;;;;;;;5002977;28;20228;-63
2021/12/31 10:38:12;;;;;;;0.80;0.80;;;;;;;;;;5005261;28;20209;-65
2021/12/31 10:40:40;;;;;;;0.70;0.70;;;;;;;;;;5007005;28;20205;-61
2021/12/31 10:43:09;;;;;;;2.90;0.60;;;;;;;;;;5007136;28;20240;-61
2021/12/31 10:45:36;;;;;;;0.63;0.55;;;;;;;;;;4998210;28;20288;-62
2021/12/31 10:48:06;;;;;;;0.75;0.75;;;;;;;;;;4985972;28;20700;-61
2021/12/31 10:50:35;;;;;;;0.70;0.70;;;;;;;;;;4987980;28;20713;-62
2021/12/31 10:53:02;;;;;;;1.15;1.10;;;;;;;;;;4988301;28;20213;-61
2021/12/31 10:55:34;;;;;;;2.58;1.42;;;;;;;;;;4998619;28;20256;-61
2021/12/31 10:58:03;;;;;;;2.80;2.10;;;;;;;;;;4994000;28;20205;-62
2021/12/31 11:00:32;;;;;;;1.15;1.10;;;;;;;;;;4998346;28;20225;-61
2021/12/31 11:02:59;;;;;;;1.90;1.70;;;;;;;;;;4989298;28;20463;-61
2021/12/31 11:05:27;;;;;;;1.25;1.25;;;;;;;;;;4988022;28;20216;-61
2021/12/31 11:07:54;;;;;;;1.30;1.30;;;;;;;;;;4991594;28;20527;-61
2021/12/31 11:10:25;;;;;;;1.13;1.13;;;;;;;;;;4998472;28;20813;-60
2021/12/31 11:12:54;;;;;;;0.90;0.90;;;;;;;;;;5001201;28;20684;-60
2021/12/31 11:15:22;;;;;;;1.75;1.17;;;;;;;;;;5005639;28;20225;-61
2021/12/31 11:17:51;;;;;;;1.13;1.13;;;;;;;;;;5000054;28;20201;-61
2021/12/31 11:20:21;;;;;;;0.98;0.98;;;;;;;;;;4998214;28;20603;-65
2021/12/31 11:22:48;;;;;;;2.78;0.93;;;;;;;;;;4995140;28;20209;-65
2021/12/31 11:25:23;;;;;;;0.80;0.80;;;;;;;;;;4997883;28;20255;-65
2021/12/31 11:27:51;;;;;;;1.10;1.10;;;;;;;;;;5008686;28;20274;-65
2021/12/31 11:30:27;;;;;;;0.90;0.90;;;;;;;;;;5010908;28;20205;-65
2021/12/31 11:32:56;;;;;;;0.88;0.88;;;;;;;;;;5009232;28;20758;-65
2021/12/31 11:35:30;;;;;;;0.80;0.80;;;;;;;;;;5003798;28;20234;-65
2021/12/31 11:37:57;;;;;;;2.38;0.93;;;;;;;;;;5002739;28;20243;-65
2021/12/31 11:40:28;;;;;;;1.20;1.00;;;;;;;;;;5004591;28;20680;-66
2021/12/31 11:43:13;;;;;;;1.20;1.13;;;;;;;;;;4999500;28;20301;-66
2021/12/31 11:45:41;;;;;;;1.13;1.13;;;;;;;;;;5001549;28;20220;-67
2021/12/31 11:48:23;;;;;;;1.35;1.02;;;;;;;;;;4998021;28;20213;-66
2021/12/31 11:51:03;;;;;;;0.77;0.77;;;;;;;;;;4999371;28;20252;-66
2021/12/31 11:53:30;;;;;;;0.80;0.80;;;;;;;;;;5004411;28;20215;-66
2021/12/31 11:55:57;;;;;;;1.40;0.90;;;;;;;;;;5000860;28;20262;-65
2021/12/31 11:58:40;;;;;;;0.90;0.90;;;;;;;;;;4999575;28;20209;-66
2021/12/31 12:01:28;;;;;;;0.88;0.88;;;;;;;;;;5001559;28;20220;-66
2021/12/31 12:04:10;;;;;;;1.85;1.00;;;;;;;;;;4997087;28;20281;-67
2021/12/31 12:06:54;;;;;;;0.80;0.80;;;;;;;;;;5002129;28;20249;-67
2021/12/31 12:09:21;;;;;;;0.85;0.85;;;;;;;;;;4999480;28;20213;-66
2021/12/31 12:12:00;;;;;;;2.83;0.80;;;;;;;;;;5001757;28;20715;-66
2021/12/31 12:14:31;;;;;;;0.60;0.60;;;;;;;;;;5000316;28;20201;-66
2021/12/31 12:16:59;;;;;;;0.80;0.80;;;;;;;;;;5001234;28;20229;-66
2021/12/31 12:19:57;;;;;;;1.33;0.70;;;;;;;;;;4999821;28;20205;-66
2021/12/31 12:22:26;;;;;;;1.73;0.77;;;;;;;;;;5001183;28;20212;-66
2021/12/31 12:24:53;;;;;;;0.80;0.80;;;;;;;;;;4994946;28;20292;-66
2021/12/31 12:27:21;;;;;;;1.50;0.77;;;;;;;;;;5002330;28;20291;-66
2021/12/31 12:29:49;;;;;;;0.90;0.90;;;;;;;;;;4999463;28;20584;-66
2021/12/31 12:32:18;;;;;;;1.17;0.93;;;;;;;;;;5000478;28;20213;-66
2021/12/31 12:34:45;;;;;;;0.70;0.70;;;;;;;;;;4998934;28;20284;-67
2021/12/31 12:37:12;;;;;;;1.23;1.13;;;;;;;;;;5003596;28;20227;-66
2021/12/31 12:39:40;;;;;;;4.90;1.20;;;;;;;;;;5003696;28;20206;-66
2021/12/31 12:42:08;;;;;;;1.00;1.00;;;;;;;;;;5001304;28;20201;-66
2021/12/31 12:44:36;;;;;;;0.77;0.77;;;;;;;;;;5001390;28;20209;-66
2021/12/31 12:47:04;;;;;;;0.75;0.65;;;;;;;;;;4999354;28;20669;-66
2021/12/31 12:49:31;;;;;;;1.75;0.80;;;;;;;;;;4999206;28;20276;-66
2021/12/31 12:52:11;;;;;;;0.70;0.60;;;;;;;;;;4999720;28;20236;-66
2021/12/31 12:54:40;;;;;;;1.08;1.08;;;;;;;;;;5000037;28;20240;-66
2021/12/31 12:57:07;;;;;;;1.30;1.00;;;;;;;;;;5002782;28;20233;-66
2021/12/31 12:59:37;;;;;;;1.30;1.20;;;;;;;;;;5000255;28;20209;-65
2021/12/31 13:02:04;;;;;;;0.63;0.63;;;;;;;;;;4999576;28;20252;-66
2021/12/31 13:04:32;;;;;;;1.00;1.00;;;;;;;;;;4999147;28;20240;-66
2021/12/31 13:07:00;;;;;;;0.82;0.82;;;;;;;;;;5000601;28;20206;-65
2021/12/31 13:09:30;;;;;;;0.95;0.95;;;;;;;;;;5000449;28;20336;-65
2021/12/31 13:12:00;;;;;;;2.50;1.00;;;;;;;;;;5002278;28;20663;-66
2021/12/31 13:14:30;;;;;;;1.30;1.20;;;;;;;;;;5000694;28;20731;-64
2021/12/31 13:16:57;;;;;;;1.25;1.25;;;;;;;;;;5001122;28;20288;-65
2021/12/31 13:19:28;;;;;;;1.40;1.30;;;;;;;;;;4999844;28;20209;-65
2021/12/31 13:21:58;;;;;;;1.63;1.60;;;;;;;;;;4998783;28;20263;-65
2021/12/31 13:24:26;;;;;;;1.70;1.60;;;;;;;;;;5002153;28;20253;-65
2021/12/31 13:26:55;;;;;;;1.60;1.50;;;;;;;;;;5002324;28;20213;-66
2021/12/31 13:29:32;;;;;;;3.92;1.58;;;;;;;;;;4995022;28;20676;-66
2021/12/31 13:32:05;;;;;;;1.53;1.43;;;;;;;;;;4994725;28;20299;-65
2021/12/31 13:34:39;;;;;;;2.95;1.65;;;;;;;;;;5002696;28;20213;-64
2021/12/31 13:37:06;;;;;;;1.25;1.25;;;;;;;;;;4991580;28;20232;-65
2021/12/31 13:39:38;;;;;;;2.03;1.93;;;;;;;;;;5005806;28;20216;-64
2021/12/31 13:42:06;;;;;;;3.50;1.90;;;;;;;;;;5005836;28;20221;-64
2021/12/31 13:44:36;;;;;;;3.30;2.00;;;;;;;;;;5005042;28;20220;-65
2021/12/31 13:47:07;;;;;;;1.93;1.93;;;;;;;;;;5005263;28;20259;-65
2021/12/31 13:49:37;;;;;;;2.27;1.97;;;;;;;;;;5002969;28;20336;-64
2021/12/31 13:52:17;;;;;;;1.65;1.52;;;;;;;;;;5005313;28;20324;-65
2021/12/31 13:54:44;;;;;;;2.10;1.97;;;;;;;;;;4985633;28;20220;-65
2021/12/31 13:57:19;;;;;;;1.88;1.77;;;;;;;;;;4996896;28;20309;-65
2021/12/31 13:59:48;;;;;;;2.10;1.90;;;;;;;;;;4991702;28;20610;-66
2021/12/31 14:02:17;;;;;;;2.55;2.10;;;;;;;;;;4990410;28;20676;-65
2021/12/31 14:05:00;;;;;;;3.00;2.23;;;;;;;;;;5005737;28;20300;-65
2021/12/31 14:07:32;;;;;;;2.20;1.85;;;;;;;;;;5005005;28;21009;-66
2021/12/31 14:10:00;;;;;;;2.58;2.03;;;;;;;;;;5004024;28;20214;-66
2021/12/31 14:12:27;;;;;;;2.30;2.13;;;;;;;;;;4998716;28;20623;-65
2021/12/31 14:14:55;;;;;;;2.65;1.90;;;;;;;;;;4986116;28;20290;-66
2021/12/31 14:17:23;;;;;;;2.20;2.10;;;;;;;;;;4985305;28;20589;-65
2021/12/31 14:19:50;;;;;;;2.75;2.55;;;;;;;;;;4999621;28;20227;-66
2021/12/31 14:22:17;;;;;;;4.38;3.30;;;;;;;;;;4992840;28;20451;-66
2021/12/31 14:24:44;;;;;;;2.92;2.72;;;;;;;;;;4998562;28;20209;-66
2021/12/31 14:27:11;;;;;;;3.63;2.03;;;;;;;;;;5001506;28;20215;-66
2021/12/31 14:29:38;;;;;;;3.08;2.30;;;;;;;;;;5005443;28;20213;-65
2021/12/31 14:32:07;;;;;;;1.98;1.88;;;;;;;;;;5005200;28;20244;-65
2021/12/31 14:34:34;;;;;;;6.25;4.75;;;;;;;;;;5004142;28;20208;-63
2021/12/31 14:37:04;;;;;;;3.20;2.50;;;;;;;;;;5004737;28;20239;-67
2021/12/31 14:39:34;;;;;;;2.23;2.03;;;;;;;;;;5004269;28;20213;-64
2021/12/31 14:42:01;;;;;;;3.23;2.00;;;;;;;;;;4997982;28;20213;-63
2021/12/31 14:44:28;;;;;;;1.75;1.65;;;;;;;;;;4995565;28;20212;-63
2021/12/31 14:46:55;;;;;;;4.03;2.10;;;;;;;;;;4989132;28;20212;-64
2021/12/31 14:49:23;;;;;;;1.60;1.53;;;;;;;;;;4996675;28;20228;-64
2021/12/31 14:51:50;;;;;;;2.07;1.97;;;;;;;;;;5004812;28;20245;-64